Time;durP1;ratioP1;P1;durP2;ratioP2;P2;SDS_P1;SDS_P2;PMS_P1;PMS_P2;Temp;Humidity;BMP_temperature;BMP_pressure;BME280_temperature;BME280_humidity;BME280_pressure;Samples;Min_cycle;Max_cycle;Signal;HPM_P1;HPM_P2
2021/06/04 00:01:21;;;;;;;7.70;6.70;;;;;;;17.71;53.56;95043.14;827569;71;32687;-77
2021/06/04 00:16:22;;;;;;;7.20;6.60;;;;;;;17.65;53.48;95037.02;828805;71;30157;-75
2021/06/04 00:31:08;;;;;;;7.03;6.35;;;;;;;17.51;52.98;95020.74;828432;71;29711;-75
2021/06/04 00:46:15;;;;;;;7.60;6.92;;;;;;;17.37;52.80;95025.48;829300;71;32953;-79
2021/06/04 01:01:11;;;;;;;7.55;6.92;;;;;;;17.24;52.73;95017.96;828817;71;30172;-77
2021/06/04 01:16:20;;;;;;;7.85;7.20;;;;;;;17.04;53.00;95020.73;827343;71;33254;-75
2021/06/04 01:31:21;;;;;;;9.90;8.10;;;;;;;16.84;53.06;95024.05;827341;71;32702;-78
2021/06/04 01:46:15;;;;;;;8.18;7.12;;;;;;;16.64;53.29;95024.87;828413;71;32074;-77
2021/06/04 02:01:15;;;;;;;8.10;7.40;;;;;;;16.53;53.39;95028.39;828140;71;30343;-80
2021/06/04 02:16:43;;;;;;;7.40;6.80;;;;;;;16.47;53.50;95036.27;827686;71;32767;-76
2021/06/04 02:31:40;;;;;;;7.62;6.83;;;;;;;16.38;53.69;95038.92;827738;71;32688;-76
2021/06/04 02:46:20;;;;;;;7.62;6.92;;;;;;;16.37;53.73;95056.44;833920;71;31932;-76
2021/06/04 03:16:16;;;;;;;6.80;6.30;;;;;;;16.32;52.96;95068.49;834553;71;33110;-75
2021/06/04 03:31:18;;;;;;;9.08;8.08;;;;;;;16.22;55.67;95081.50;835001;71;32709;-78
2021/06/04 03:46:15;;;;;;;8.25;7.55;;;;;;;16.13;56.88;95094.70;833967;71;32701;-78
2021/06/04 04:01:15;;;;;;;8.03;7.22;;;;;;;16.38;57.14;95092.41;834152;71;30348;-77
2021/06/04 04:16:15;;;;;;;11.95;8.98;;;;;;;16.56;55.57;95102.50;827591;71;32705;-76
2021/06/04 04:31:12;;;;;;;7.10;6.50;;;;;;;16.72;53.67;95107.57;828260;71;30532;-79
2021/06/04 04:46:10;;;;;;;8.28;7.47;;;;;;;16.94;52.88;95111.97;822018;71;29729;-77
2021/06/04 05:01:15;;;;;;;8.00;7.30;;;;;;;17.24;50.88;95124.61;827770;71;32699;-81
2021/06/04 05:16:16;;;;;;;7.25;6.55;;;;;;;17.58;50.18;95133.05;822445;71;32675;-77
2021/06/04 05:31:10;;;;;;;8.43;6.80;;;;;;;18.06;49.05;95137.83;828100;71;29748;-78
2021/06/04 05:46:10;;;;;;;7.05;6.45;;;;;;;18.56;47.64;95147.19;828211;71;29680;-77
2021/06/04 06:01:11;;;;;;;8.43;7.40;;;;;;;19.20;46.87;95151.99;833906;71;30131;-79
2021/06/04 06:16:11;;;;;;;6.65;6.10;;;;;;;21.24;42.89;95151.59;835689;69;31257;-80
2021/06/04 06:31:20;;;;;;;6.22;5.72;;;;;;;23.42;38.55;95144.50;829326;71;32733;-76
2021/06/04 06:46:10;;;;;;;6.47;5.87;;;;;;;25.29;35.79;95140.94;829212;71;28674;-78
2021/06/04 07:01:15;;;;;;;6.00;5.50;;;;;;;27.03;33.18;95131.25;828230;71;31721;-79
2021/06/04 07:16:20;;;;;;;5.70;4.77;;;;;;;28.03;30.85;95126.74;827811;71;31747;-78
2021/06/04 07:31:11;;;;;;;4.80;4.50;;;;;;;29.24;29.80;95137.20;828373;71;29556;-78
2021/06/04 07:46:09;;;;;;;5.63;5.13;;;;;;;29.90;28.17;95138.42;828485;71;28616;-77
2021/06/04 08:01:08;;;;;;;6.73;6.23;;;;;;;29.70;29.00;95149.71;835109;71;28745;-75
2021/06/04 08:16:14;;;;;;;6.07;5.57;;;;;;;29.22;28.87;95153.61;827758;71;31716;-76
2021/06/04 08:31:30;;;;;;;5.67;5.23;;;;;;;28.72;29.29;95153.91;834142;71;32742;-80
2021/06/04 08:46:21;;;;;;;5.03;4.73;;;;;;;28.20;30.12;95161.63;819277;71;31314;-80
2021/06/04 09:16:31;;;;;;;108.17;69.67;;;;;;;;;;834278;71;32271;-78
2021/06/04 09:31:28;;;;;;;5.17;4.80;;;;;;;27.62;30.21;95153.25;827490;71;31769;-78
2021/06/04 09:46:13;;;;;;;5.20;4.70;;;;;;;28.03;29.49;95146.98;828495;71;29744;-77
2021/06/04 10:01:11;;;;;;;5.07;4.77;;;;;;;27.72;30.23;95142.65;828792;71;28643;-77
2021/06/04 10:31:18;;;;;;;5.30;4.80;;;;;;;26.06;33.16;95125.80;828730;71;29745;-78
2021/06/04 10:46:26;;;;;;;5.10;4.70;;;;;;;26.55;31.88;95127.30;820242;71;31790;-77
2021/06/04 11:01:17;;;;;;;4.57;4.27;;;;;;;26.48;31.97;95128.58;823161;71;31833;-77
2021/06/04 11:16:32;;;;;;;4.93;4.63;;;;;;;26.43;31.29;95114.91;833875;71;32202;-77
2021/06/04 11:31:12;;;;;;;4.90;4.50;;;;;;;26.58;30.92;95097.74;829334;71;29571;-77
2021/06/04 11:46:18;;;;;;;5.30;4.83;;;;;;;27.08;30.41;95078.92;794016;74;30348;-77
2021/06/04 12:01:28;;;;;;;5.07;4.67;;;;;;;27.63;30.29;95077.34;827571;71;32184;-76
2021/06/04 12:16:28;;;;;;;5.10;4.77;;;;;;;;;;827575;71;31720;-76
2021/06/04 12:31:41;;;;;;;9.60;5.80;;;;;;;28.51;29.07;95058.10;834451;71;31784;-78
2021/06/04 12:46:16;;;;;;;5.20;4.80;;;;;;;;;;834988;71;30007;-78
2021/06/04 13:01:21;;;;;;;5.53;5.20;;;;;;;26.52;31.94;95055.35;828033;71;31714;-75
2021/06/04 13:16:24;;;;;;;6.00;5.50;;;;;;;25.61;34.51;95081.39;815388;71;29755;-77
2021/06/04 13:31:20;;;;;;;5.53;5.13;;;;;;;25.25;35.52;95083.70;828751;71;31708;-76
2021/06/04 13:46:44;;;;;;;6.00;5.60;;;;;;;25.26;35.85;95077.17;833280;71;31689;-76
2021/06/04 14:01:23;;;;;;;5.87;5.40;;;;;;;25.10;36.21;95086.78;834186;71;31758;-79
2021/06/04 14:16:10;;;;;;;5.50;4.93;;;;;;;24.96;36.77;95086.04;828276;71;29298;-76
2021/06/04 14:31:23;;;;;;;5.20;4.80;;;;;;;24.94;37.53;95075.44;834058;71;31807;-75
2021/06/04 14:46:14;;;;;;;5.83;5.47;;;;;;;25.04;36.68;95076.70;829472;71;30492;-77
2021/06/04 15:01:59;;;;;;;5.77;5.27;;;;;;;24.88;36.81;95050.05;834276;71;28724;-75
2021/06/04 15:16:16;;;;;;;7.70;5.70;;;;;;;24.76;36.51;95049.17;827903;71;30513;-77
2021/06/04 15:31:14;;;;;;;5.60;5.10;;;;;;;24.51;36.50;95043.50;828014;71;31413;-76
2021/06/04 15:46:31;;;;;;;5.87;5.37;;;;;;;24.23;38.39;95042.51;829372;71;32711;-75
2021/06/04 16:01:16;;;;;;;8.80;8.00;;;;;;;24.40;40.20;95023.19;827397;71;33171;-79
2021/06/04 16:16:11;;;;;;;18.40;16.60;;;;;;;24.25;39.90;95040.78;828405;71;31179;-78
2021/06/04 16:31:37;;;;;;;9.50;8.60;;;;;;;24.06;40.08;95029.60;829039;71;33153;-80
2021/06/04 16:46:15;;;;;;;7.90;7.10;;;;;;;23.93;40.78;95044.55;828637;71;30309;-78
2021/06/04 17:01:10;;;;;;;7.57;6.80;;;;;;;23.28;40.51;95049.38;829832;70;29776;-77
2021/06/04 17:16:17;;;;;;;6.10;5.60;;;;;;;22.90;40.82;95043.47;833871;71;32725;-77
2021/06/04 17:31:14;;;;;;;7.27;6.67;;;;;;;22.30;42.13;95063.24;830772;70;33610;-77
2021/06/04 17:46:09;;;;;;;6.95;6.25;;;;;;;21.83;44.85;95069.40;828375;71;29663;-77
2021/06/04 18:01:15;;;;;;;7.53;6.30;;;;;;;21.47;47.80;95083.23;834704;71;32733;-78
2021/06/04 18:16:21;;;;;;;8.38;6.92;;;;;;;21.04;47.65;95087.95;827629;71;32712;-79
2021/06/04 18:31:16;;;;;;;10.98;9.05;;;;;;;20.64;48.59;95107.39;834041;71;33221;-81
2021/06/04 18:46:40;;;;;;;9.45;8.13;;;;;;;20.27;50.20;95120.17;795660;73;32892;-81
2021/06/04 19:01:16;;;;;;;7.33;6.70;;;;;;;19.95;50.85;95124.50;828679;71;31931;-81
2021/06/04 19:16:14;;;;;;;7.05;6.12;;;;;;;19.62;51.80;95127.41;829730;71;30869;-78
2021/06/04 19:32:00;;;;;;;8.50;7.80;;;;;;;19.32;52.96;95147.28;792353;72;34151;-82
2021/06/04 19:46:12;;;;;;;9.05;8.20;;;;;;;19.12;53.44;95157.64;832812;71;30245;-79
2021/06/04 20:01:12;;;;;;;20.17;12.60;;;;;;;18.91;57.56;95160.84;818052;70;30890;-82
2021/06/04 20:16:15;;;;;;;12.88;9.15;;;;;;;19.20;56.96;95171.95;817178;71;32102;-81
2021/06/04 20:31:13;;;;;;;9.78;7.42;;;;;;;19.30;56.43;95158.80;815245;71;31736;-76
2021/06/04 20:46:11;;;;;;;11.38;8.73;;;;;;;19.40;56.09;95142.43;820301;71;29770;-79
2021/06/04 21:16:17;;;;;;;11.97;10.35;;;;;;;19.28;55.98;95129.88;834115;71;33117;-77
2021/06/04 21:31:13;;;;;;;10.70;7.42;;;;;;;19.25;56.06;95125.76;828640;71;32061;-78
2021/06/04 21:46:13;;;;;;;7.50;6.80;;;;;;;19.26;56.07;95128.63;829339;71;31416;-79
2021/06/04 22:01:11;;;;;;;9.13;8.00;;;;;;;19.13;56.24;95130.47;829457;71;29761;-79
2021/06/04 22:16:10;;;;;;;9.70;8.68;;;;;;;18.67;58.02;95132.96;834654;71;29733;-79
2021/06/04 22:31:11;;;;;;;9.93;7.35;;;;;;;18.76;57.92;95131.03;828743;71;29720;-77
2021/06/04 22:46:20;;;;;;;7.35;6.75;;;;;;;18.60;57.72;95126.06;827895;71;32759;-78
2021/06/04 23:01:13;;;;;;;7.35;6.65;;;;;;;18.51;57.96;95111.51;835800;70;29814;-77
2021/06/04 23:16:17;;;;;;;7.47;6.67;;;;;;;18.35;58.34;95100.66;827435;71;33179;-80
2021/06/04 23:31:15;;;;;;;6.95;6.45;;;;;;;18.26;58.59;95089.29;828360;71;32488;-78
2021/06/04 23:46:18;;;;;;;7.00;6.40;;;;;;;18.29;58.11;95087.34;833984;71;32698;-77
